Aérodrome :
LOGIN :

S'inscrire | Disclaimer

   EN    FR    IT 

 










Légende :    VFR   VFR Marginal   IFR   IFR Intensif   IFR Très Intensif
Visi : 
Plafond : 
>= 8 km
>= 3000ft
5 à 8 km
1000 à 3000 ft
1500m à 5 km
500 à 1000 ft
800 à 1500m
200 à 500 ft
< 800m
< 200 ft
Symboles :   Orages  Brouillard  Fortes neiges  Fortes précipitations  Vent > 20 kt
SIGMETs :   Divers  Orages  Givrage  Turbulence  Onde Orograph.  Cendres Volcan.






- Altitude de l'aérodrome : 876 ft
- Code IATA : MBX


LJMB - Maribor

DERNIER METAR :
  • 300900Z 22003KT 170V260 9999 BKN010 BKN080 14/11 Q1010

METARs EXPIRÉS :
  • 300830Z 20004KT 150V240 9999 BKN008 BKN080 13/11 Q1010
  • 300800Z 20003KT 140V240 9999 BKN006 BKN080 12/11 Q1010
  • 300730Z 18004KT 150V210 9999 FEW005 SCT021 BKN080 12/11 Q1009
  • 300700Z 18004KT 7000 FEW003 SCT021 BKN075 12/11 Q1009
  • 300630Z VRB02KT 6000 -RA SCT005 OVC070 11/10 Q1009

TAF TAF LJMB
Valide du 30 à 06h jusqu'au 01 à 06h UTC


300500Z 3006/0106 18004KT 7000 SCT015 OVC030
TEMPO 3006/3008 3500 BR OVC004
TEMPO 3008/3016 -RA
TEMPO 3016/0106 SHRA FEW003 BKN015TCU
PROB30
TEMPO 3018/0104 VRB15KT 3000 TSRA BR SCT003 BKN015CB



MET'MAP, la Météo Aéronautique d'un coup d'oeil ! - Copyright ORBIFLY Décembre 2007 - Disclaimer

ORBIFLY MET'MAP TEAM :

Programmation & Développement : Alexandra Zaïnal
Sur une idée originale de : Baudouin d'Aumeries
Soutien technique & logistique : Manuel Goepfert
Assistance : Marc-Olivier Méhu




SOURCES & CREDITS :

   NOAA